createdAt,value
2019-05-28T00:00:01.540Z,16.36
2019-05-28T00:00:52.205Z,16.40
2019-05-28T00:01:51.199Z,16.32
2019-05-28T00:02:51.188Z,16.33
2019-05-28T00:03:51.173Z,16.30
2019-05-28T00:04:51.161Z,16.32
2019-05-28T00:05:51.159Z,16.32
2019-05-28T00:06:51.153Z,16.33
2019-05-28T00:07:51.126Z,16.32
2019-05-28T00:08:51.128Z,16.32
2019-05-28T00:09:51.105Z,16.32
2019-05-28T00:10:51.095Z,16.32
2019-05-28T00:11:51.099Z,16.32
2019-05-28T00:12:51.134Z,16.33
2019-05-28T00:13:51.081Z,16.36
2019-05-28T00:14:51.056Z,16.34
2019-05-28T00:15:51.045Z,16.29
2019-05-28T00:16:51.056Z,16.30
2019-05-28T00:17:51.026Z,16.23
2019-05-28T00:18:51.008Z,16.27
2019-05-28T00:19:50.994Z,16.22
2019-05-28T00:20:50.982Z,16.18
2019-05-28T00:21:50.995Z,16.18
2019-05-28T00:22:50.969Z,16.13
2019-05-28T00:23:50.972Z,16.17
2019-05-28T00:24:50.949Z,16.11
2019-05-28T00:25:50.934Z,16.16
2019-05-28T00:26:50.924Z,16.07
2019-05-28T00:27:50.932Z,16.06
2019-05-28T00:28:50.907Z,16.03
2019-05-28T00:29:50.893Z,16.18
2019-05-28T00:30:50.878Z,16.10
2019-05-28T00:31:50.864Z,15.95
2019-05-28T00:32:50.931Z,16.11
2019-05-28T00:33:50.847Z,16.03
2019-05-28T00:34:50.904Z,16.03
2019-05-28T00:35:50.832Z,15.99
2019-05-28T00:36:50.829Z,15.95
2019-05-28T00:37:50.823Z,15.95
2019-05-28T00:38:50.792Z,16.01
2019-05-28T00:39:50.781Z,15.92
2019-05-28T00:40:50.778Z,15.93
2019-05-28T00:41:50.768Z,15.88
2019-05-28T00:42:50.768Z,15.89
2019-05-28T00:43:50.749Z,15.85
2019-05-28T00:44:50.736Z,15.81
2019-05-28T00:45:50.718Z,15.76
2019-05-28T00:46:50.712Z,15.76
2019-05-28T00:47:50.720Z,15.76
2019-05-28T00:48:50.692Z,15.68
2019-05-28T00:49:50.683Z,15.64
2019-05-28T00:50:50.662Z,15.60
2019-05-28T00:51:50.659Z,15.62
2019-05-28T00:52:50.656Z,15.59
2019-05-28T00:53:50.644Z,15.53
2019-05-28T00:54:50.630Z,15.56
2019-05-28T00:55:50.629Z,15.58
2019-05-28T00:56:50.608Z,15.58
2019-05-28T00:57:50.610Z,15.62
2019-05-28T00:58:50.585Z,15.56
2019-05-28T00:59:50.569Z,15.58
2019-05-28T01:00:50.563Z,15.60
2019-05-28T01:01:50.552Z,15.52
2019-05-28T01:02:50.556Z,15.58
2019-05-28T01:03:50.525Z,15.55
2019-05-28T01:04:50.524Z,15.56
2019-05-28T01:05:50.502Z,15.53
2019-05-28T01:06:50.509Z,15.49
2019-05-28T01:07:50.504Z,15.49
2019-05-28T01:08:50.477Z,15.43
2019-05-28T01:09:50.467Z,15.49
2019-05-28T01:10:50.461Z,15.44
2019-05-28T01:11:50.440Z,15.44
2019-05-28T01:12:50.442Z,15.37
2019-05-28T01:13:50.420Z,15.34
2019-05-28T01:14:50.411Z,15.30
2019-05-28T01:15:50.421Z,15.27
2019-05-28T01:16:50.383Z,15.18
2019-05-28T01:17:50.386Z,15.20
2019-05-28T01:18:50.374Z,15.27
2019-05-28T01:19:50.361Z,15.18
2019-05-28T01:20:50.355Z,15.23
2019-05-28T01:21:50.339Z,15.15
2019-05-28T01:22:50.337Z,15.11
2019-05-28T01:23:50.309Z,15.15
2019-05-28T01:24:50.297Z,15.11
2019-05-28T01:25:50.318Z,15.01
2019-05-28T01:26:50.288Z,14.91
2019-05-28T01:27:50.287Z,15.00
2019-05-28T01:28:50.259Z,14.93
2019-05-28T01:29:50.251Z,14.93
2019-05-28T01:30:55.987Z,14.80
2019-05-28T01:31:51.221Z,14.87
2019-05-28T01:32:50.236Z,14.82
2019-05-28T01:33:50.206Z,14.82
2019-05-28T01:34:50.189Z,14.82
2019-05-28T01:35:50.182Z,14.72
2019-05-28T01:36:50.172Z,14.71
2019-05-28T01:37:50.170Z,14.72
2019-05-28T01:38:50.151Z,14.71
2019-05-28T01:39:50.141Z,14.71
2019-05-28T01:40:50.129Z,14.71
2019-05-28T01:41:50.122Z,14.78
2019-05-28T01:42:50.120Z,14.61
2019-05-28T01:43:50.096Z,14.61
2019-05-28T01:44:50.080Z,14.61
2019-05-28T01:45:50.071Z,14.57
2019-05-28T01:46:50.069Z,14.59
2019-05-28T01:47:50.085Z,14.57
2019-05-28T01:48:50.038Z,14.57
2019-05-28T01:49:50.028Z,14.52
2019-05-28T01:50:50.021Z,14.52
2019-05-28T01:51:50.012Z,14.42
2019-05-28T01:52:50.016Z,14.46
2019-05-28T01:53:49.996Z,14.46
2019-05-28T01:54:49.989Z,14.39
2019-05-28T01:55:49.972Z,14.45
2019-05-28T01:56:49.952Z,14.34
2019-05-28T01:57:49.958Z,14.29
2019-05-28T01:58:49.936Z,14.35
2019-05-28T01:59:49.931Z,14.36
2019-05-28T02:00:49.959Z,14.35
2019-05-28T02:01:49.973Z,14.30
2019-05-28T02:02:49.924Z,14.21
2019-05-28T02:03:49.881Z,14.36
2019-05-28T02:04:49.883Z,14.26
2019-05-28T02:05:49.866Z,14.23
2019-05-28T02:06:49.865Z,14.34
2019-05-28T02:07:49.835Z,14.26
2019-05-28T02:08:49.869Z,14.23
2019-05-28T02:09:49.815Z,14.17
2019-05-28T02:10:49.828Z,14.26
2019-05-28T02:11:49.804Z,14.23
2019-05-28T02:12:49.793Z,14.20
2019-05-28T02:13:49.808Z,14.20
2019-05-28T02:14:49.765Z,14.26
2019-05-28T02:15:49.756Z,14.19
2019-05-28T02:16:49.752Z,14.21
2019-05-28T02:17:49.747Z,14.16
2019-05-28T02:18:49.741Z,14.20
2019-05-28T02:19:49.719Z,14.20
2019-05-28T02:20:49.700Z,14.17
2019-05-28T02:21:49.703Z,14.12
2019-05-28T02:22:49.704Z,14.05
2019-05-28T02:23:49.678Z,14.05
2019-05-28T02:24:49.681Z,14.06
2019-05-28T02:25:49.653Z,14.16
2019-05-28T02:26:49.635Z,14.09
2019-05-28T02:27:49.657Z,14.08
2019-05-28T02:28:49.624Z,14.12
2019-05-28T02:29:49.650Z,14.08
2019-05-28T02:30:49.599Z,14.04
2019-05-28T02:31:49.590Z,14.02
2019-05-28T02:32:49.604Z,14.11
2019-05-28T02:33:49.570Z,14.09
2019-05-28T02:34:49.560Z,14.11
2019-05-28T02:35:49.599Z,14.13
2019-05-28T02:36:49.537Z,14.17
2019-05-28T02:37:49.535Z,14.17
2019-05-28T02:38:49.527Z,14.16
2019-05-28T02:39:49.505Z,14.11
2019-05-28T02:40:49.490Z,14.13
2019-05-28T02:41:49.491Z,14.12
2019-05-28T02:42:49.472Z,14.13
2019-05-28T02:43:49.515Z,14.12
2019-05-28T02:44:49.457Z,14.13
2019-05-28T02:45:49.444Z,14.06
2019-05-28T02:46:49.432Z,14.16
2019-05-28T02:47:49.417Z,13.99
2019-05-28T02:48:49.417Z,14.02
2019-05-28T02:49:49.395Z,14.01
2019-05-28T02:50:49.389Z,14.05
2019-05-28T02:51:49.384Z,13.98
2019-05-28T02:52:49.377Z,13.99
2019-05-28T02:53:49.364Z,13.99
2019-05-28T02:54:49.347Z,14.02
2019-05-28T02:55:49.337Z,14.02
2019-05-28T02:56:49.339Z,13.96
2019-05-28T02:57:49.316Z,13.98
2019-05-28T02:58:49.319Z,14.06
2019-05-28T02:59:49.295Z,13.98
2019-05-28T03:00:49.281Z,14.04
2019-05-28T03:01:49.270Z,13.93
2019-05-28T03:02:49.266Z,13.87
2019-05-28T03:03:49.265Z,13.87
2019-05-28T03:04:49.298Z,13.94
2019-05-28T03:05:49.231Z,13.91
2019-05-28T03:06:49.246Z,13.87
2019-05-28T03:07:49.213Z,13.83
2019-05-28T03:08:49.250Z,13.88
2019-05-28T03:09:49.200Z,13.86
2019-05-28T03:11:04.897Z,13.75
2019-05-28T03:11:50.165Z,13.71
2019-05-28T03:12:50.049Z,13.73
2019-05-28T03:13:49.157Z,13.76
2019-05-28T03:14:49.139Z,13.76
2019-05-28T03:15:49.144Z,13.80
2019-05-28T03:16:49.109Z,13.76
2019-05-28T03:17:49.100Z,13.80
2019-05-28T03:18:49.107Z,13.84
2019-05-28T03:19:49.083Z,13.88
2019-05-28T03:20:49.071Z,13.80
2019-05-28T03:21:49.065Z,13.86
2019-05-28T03:22:49.045Z,13.94
2019-05-28T03:23:49.058Z,13.93
2019-05-28T03:24:49.031Z,13.83
2019-05-28T03:25:49.044Z,13.88
2019-05-28T03:26:49.008Z,13.79
2019-05-28T03:27:48.990Z,13.83
2019-05-28T03:28:48.981Z,13.83
2019-05-28T03:29:48.985Z,13.79
2019-05-28T03:30:48.977Z,13.87
2019-05-28T03:32:06.886Z,13.80
2019-05-28T03:32:49.940Z,13.86
2019-05-28T03:33:48.933Z,13.79
2019-05-28T03:34:48.930Z,13.86
2019-05-28T03:35:48.909Z,13.94
2019-05-28T03:36:48.895Z,13.94
2019-05-28T03:37:48.889Z,14.01
2019-05-28T03:38:48.882Z,13.98
2019-05-28T03:39:48.889Z,13.90
2019-05-28T03:40:48.853Z,13.94
2019-05-28T03:41:48.840Z,14.05
2019-05-28T03:42:48.834Z,13.98
2019-05-28T03:43:48.828Z,13.99
2019-05-28T03:44:48.828Z,14.01
2019-05-28T03:45:48.808Z,14.08
2019-05-28T03:46:48.785Z,14.04
2019-05-28T03:47:48.780Z,13.99
2019-05-28T03:48:48.792Z,14.08
2019-05-28T03:49:48.792Z,14.06
2019-05-28T03:50:48.755Z,14.13
2019-05-28T03:51:48.745Z,14.12
2019-05-28T03:52:48.724Z,14.19
2019-05-28T03:53:48.716Z,14.19
2019-05-28T03:54:48.710Z,14.24
2019-05-28T03:55:48.689Z,14.24
2019-05-28T03:56:48.684Z,14.23
2019-05-28T03:57:48.673Z,14.27
2019-05-28T03:58:48.656Z,14.26
2019-05-28T03:59:48.674Z,14.29
2019-05-28T04:00:48.655Z,14.35
2019-05-28T04:01:48.656Z,14.36
2019-05-28T04:02:48.618Z,14.30
2019-05-28T04:03:48.605Z,14.34
2019-05-28T04:04:48.609Z,14.44
2019-05-28T04:05:48.587Z,14.48
2019-05-28T04:06:48.576Z,14.42
2019-05-28T04:07:48.556Z,14.42
2019-05-28T04:08:48.559Z,14.52
2019-05-28T04:09:48.549Z,14.42
2019-05-28T04:10:48.538Z,14.60
2019-05-28T04:11:48.522Z,14.61
2019-05-28T04:12:48.502Z,14.60
2019-05-28T04:13:48.491Z,14.59
2019-05-28T04:14:48.498Z,14.64
2019-05-28T04:15:48.485Z,14.63
2019-05-28T04:16:48.471Z,14.67
2019-05-28T04:17:48.465Z,14.72
2019-05-28T04:18:48.438Z,14.75
2019-05-28T04:19:48.471Z,14.75
2019-05-28T04:20:48.416Z,14.69
2019-05-28T04:21:48.419Z,14.80
2019-05-28T04:22:48.406Z,14.78
2019-05-28T04:23:48.407Z,14.75
2019-05-28T04:24:48.398Z,14.83
2019-05-28T04:25:48.373Z,14.83
2019-05-28T04:26:48.351Z,14.86
2019-05-28T04:27:48.382Z,14.82
2019-05-28T04:28:48.341Z,14.83
2019-05-28T04:29:48.365Z,14.90
2019-05-28T04:30:48.310Z,14.90
2019-05-28T04:31:48.301Z,14.79
2019-05-28T04:32:48.287Z,14.95
2019-05-28T04:33:48.277Z,15.03
2019-05-28T04:34:48.289Z,15.00
2019-05-28T04:35:48.285Z,15.00
2019-05-28T04:36:48.250Z,15.01
2019-05-28T04:37:48.242Z,15.05
2019-05-28T04:38:48.231Z,15.01
2019-05-28T04:39:48.213Z,15.05
2019-05-28T04:40:48.213Z,15.16
2019-05-28T04:41:48.189Z,15.05
2019-05-28T04:42:48.267Z,15.07
2019-05-28T04:43:48.176Z,15.12
2019-05-28T04:44:48.159Z,15.15
2019-05-28T04:45:48.167Z,15.12
2019-05-28T04:46:48.155Z,15.27
2019-05-28T04:47:48.140Z,15.22
2019-05-28T04:48:48.126Z,15.31
2019-05-28T04:49:48.115Z,15.27
2019-05-28T04:50:48.114Z,15.35
2019-05-28T04:51:48.085Z,15.41
2019-05-28T04:52:48.082Z,15.41
2019-05-28T04:53:48.062Z,15.52
2019-05-28T04:54:48.059Z,15.41
2019-05-28T04:55:48.078Z,15.46
2019-05-28T04:56:48.039Z,15.53
2019-05-28T04:57:48.033Z,15.56
2019-05-28T04:58:48.015Z,15.56
2019-05-28T04:59:47.998Z,15.59
2019-05-28T05:00:47.996Z,15.62
2019-05-28T05:01:48.022Z,15.73
2019-05-28T05:02:58.753Z,15.77
2019-05-28T05:03:48.963Z,15.78
2019-05-28T05:04:47.953Z,15.84
2019-05-28T05:05:47.937Z,15.88
2019-05-28T05:06:48.096Z,15.88
2019-05-28T05:07:47.924Z,15.99
2019-05-28T05:08:47.918Z,16.01
2019-05-28T05:09:47.912Z,16.10
2019-05-28T05:10:47.885Z,16.08
2019-05-28T05:11:47.872Z,16.14
2019-05-28T05:12:47.874Z,16.23
2019-05-28T05:13:47.852Z,16.29
2019-05-28T05:14:47.849Z,16.30
2019-05-28T05:15:47.838Z,16.41
2019-05-28T05:16:47.821Z,16.50
2019-05-28T05:17:47.821Z,16.65
2019-05-28T05:18:47.808Z,16.70
2019-05-28T05:19:47.790Z,16.82
2019-05-28T05:20:47.784Z,16.88
2019-05-28T05:21:47.770Z,17.02
2019-05-28T05:22:47.766Z,17.15
2019-05-28T05:23:47.752Z,17.27
2019-05-28T05:24:47.736Z,17.28
2019-05-28T05:25:47.729Z,17.42
2019-05-28T05:26:47.729Z,17.60
2019-05-28T05:27:47.723Z,17.62
2019-05-28T05:28:47.706Z,17.83
2019-05-28T05:29:47.702Z,17.84
2019-05-28T05:30:47.672Z,17.98
2019-05-28T05:31:47.670Z,18.07
2019-05-28T05:32:47.680Z,18.01
2019-05-28T05:33:47.646Z,17.94
2019-05-28T05:34:47.627Z,18.05
2019-05-28T05:35:47.624Z,17.92
2019-05-28T05:36:47.606Z,18.04
2019-05-28T05:37:47.612Z,17.95
2019-05-28T05:38:47.592Z,18.05
2019-05-28T05:39:49.004Z,17.98
2019-05-28T05:40:47.571Z,17.98
2019-05-28T05:41:47.561Z,17.91
2019-05-28T05:42:47.558Z,17.91
2019-05-28T05:43:47.532Z,17.92
2019-05-28T05:44:47.526Z,17.89
2019-05-28T05:45:47.519Z,17.81
2019-05-28T05:46:47.509Z,17.84
2019-05-28T05:47:47.516Z,18.38
2019-05-28T05:48:47.479Z,18.59
2019-05-28T05:49:47.468Z,19.20
2019-05-28T05:50:47.465Z,19.49
2019-05-28T05:51:47.455Z,19.62
2019-05-28T05:52:47.460Z,20.12
2019-05-28T05:53:47.723Z,20.40
2019-05-28T05:54:47.434Z,20.66
2019-05-28T05:55:47.405Z,20.88
2019-05-28T05:56:47.394Z,20.88
2019-05-28T05:57:47.402Z,20.98
2019-05-28T05:58:47.381Z,21.00
2019-05-28T05:59:47.369Z,20.98
2019-05-28T06:00:47.379Z,21.22
2019-05-28T06:01:47.348Z,21.38
2019-05-28T06:02:47.343Z,21.63
2019-05-28T06:03:47.323Z,21.67
2019-05-28T06:04:47.334Z,21.68
2019-05-28T06:05:47.308Z,21.86
2019-05-28T06:06:47.289Z,22.01
2019-05-28T06:07:47.332Z,21.89
2019-05-28T06:08:47.269Z,22.01
2019-05-28T06:09:47.257Z,21.82
2019-05-28T06:10:47.251Z,21.51
2019-05-28T06:11:47.239Z,21.09
2019-05-28T06:12:47.245Z,21.05
2019-05-28T06:13:47.220Z,21.19
2019-05-28T06:14:47.220Z,21.18
2019-05-28T06:15:47.198Z,21.27
2019-05-28T06:16:47.187Z,21.19
2019-05-28T06:17:47.194Z,21.09
2019-05-28T06:18:47.258Z,21.27
2019-05-28T06:19:47.159Z,21.34
2019-05-28T06:20:47.163Z,21.46
2019-05-28T06:21:47.133Z,21.64
2019-05-28T06:22:47.127Z,21.90
2019-05-28T06:23:47.147Z,22.08
2019-05-28T06:24:47.115Z,22.35
2019-05-28T06:25:47.101Z,22.70
2019-05-28T06:26:47.076Z,22.94
2019-05-28T06:27:47.115Z,23.07
2019-05-28T06:28:47.069Z,23.12
2019-05-28T06:29:47.043Z,23.16
2019-05-28T06:30:47.036Z,23.47
2019-05-28T06:31:47.060Z,23.60
2019-05-28T06:32:47.036Z,23.23
2019-05-28T06:33:56.195Z,22.45
2019-05-28T06:34:48.049Z,21.91
2019-05-28T06:35:46.980Z,21.61
2019-05-28T06:36:47.006Z,21.36
2019-05-28T06:37:46.963Z,20.94
2019-05-28T06:38:46.963Z,20.81
2019-05-28T06:39:46.950Z,20.48
2019-05-28T06:40:46.925Z,20.26
2019-05-28T06:41:46.913Z,20.17
2019-05-28T06:42:46.908Z,20.00
2019-05-28T06:43:46.911Z,19.94
2019-05-28T06:44:46.906Z,19.76
2019-05-28T06:45:46.881Z,19.71
2019-05-28T06:46:46.865Z,19.68
2019-05-28T06:47:46.848Z,19.65
2019-05-28T06:48:46.853Z,19.78
2019-05-28T06:49:46.832Z,20.00
2019-05-28T06:50:46.830Z,20.08
2019-05-28T06:51:46.831Z,20.42
2019-05-28T06:52:46.799Z,20.61
2019-05-28T06:53:46.802Z,21.00
2019-05-28T06:54:46.785Z,21.58
2019-05-28T06:55:46.772Z,21.89
2019-05-28T06:56:46.769Z,22.24
2019-05-28T06:57:46.761Z,22.20
2019-05-28T06:58:46.746Z,22.08
2019-05-28T06:59:46.722Z,21.73
2019-05-28T07:00:46.715Z,21.48
2019-05-28T07:01:46.721Z,21.15
2019-05-28T07:02:46.708Z,21.06
2019-05-28T07:03:46.701Z,20.83
2019-05-28T07:04:46.681Z,20.81
2019-05-28T07:05:46.664Z,20.85
2019-05-28T07:06:46.653Z,21.00
2019-05-28T07:07:46.640Z,21.12
2019-05-28T07:08:46.653Z,21.05
2019-05-28T07:09:46.627Z,20.98
2019-05-28T07:10:57.292Z,20.94
2019-05-28T07:11:47.596Z,20.58
2019-05-28T07:12:46.589Z,20.48
2019-05-28T07:13:46.612Z,20.41
2019-05-28T07:14:46.681Z,20.23
2019-05-28T07:15:46.563Z,20.20
2019-05-28T07:16:53.397Z,20.13
2019-05-28T07:17:47.539Z,20.20
2019-05-28T07:18:46.522Z,20.13
2019-05-28T07:19:46.522Z,20.15
2019-05-28T07:20:46.520Z,20.12
2019-05-28T07:21:46.498Z,20.13
2019-05-28T07:22:46.486Z,20.19
2019-05-28T07:23:46.476Z,20.26
2019-05-28T07:24:46.476Z,20.20
2019-05-28T07:25:46.453Z,20.31
2019-05-28T07:26:46.526Z,20.26
2019-05-28T07:27:46.439Z,20.42
2019-05-28T07:28:46.424Z,20.48
2019-05-28T07:29:46.423Z,20.58
2019-05-28T07:30:46.397Z,20.60
2019-05-28T07:31:46.396Z,20.81
2019-05-28T07:32:46.402Z,20.66
2019-05-28T07:33:46.372Z,20.66
2019-05-28T07:34:46.377Z,20.81
2019-05-28T07:35:46.595Z,20.72
2019-05-28T07:36:46.340Z,20.79
2019-05-28T07:37:46.333Z,20.88
2019-05-28T07:38:46.313Z,20.94
2019-05-28T07:39:46.321Z,21.00
2019-05-28T07:40:46.302Z,21.18
2019-05-28T07:41:46.292Z,21.31
2019-05-28T07:42:46.275Z,21.58
2019-05-28T07:43:46.257Z,21.53
2019-05-28T07:44:46.260Z,21.64
2019-05-28T07:45:46.237Z,21.79
2019-05-28T07:46:46.231Z,21.99
2019-05-28T07:47:46.220Z,22.09
2019-05-28T07:48:46.219Z,21.94
2019-05-28T07:49:46.227Z,21.86
2019-05-28T07:50:46.186Z,21.94
2019-05-28T07:51:46.177Z,22.08
2019-05-28T07:52:46.174Z,22.05
2019-05-28T07:53:46.154Z,21.94
2019-05-28T07:54:46.158Z,21.89
2019-05-28T07:55:46.164Z,21.85
2019-05-28T07:56:46.120Z,22.01
2019-05-28T07:57:46.149Z,22.15
2019-05-28T07:58:46.109Z,22.35
2019-05-28T07:59:46.100Z,22.33
2019-05-28T08:00:46.099Z,22.42
2019-05-28T08:01:46.094Z,22.61
2019-05-28T08:02:46.054Z,22.99
2019-05-28T08:03:46.068Z,23.09
2019-05-28T08:04:47.489Z,23.34
2019-05-28T08:05:46.041Z,23.32
2019-05-28T08:06:54.551Z,23.26
2019-05-28T08:07:47.009Z,23.32
2019-05-28T08:08:46.003Z,23.38
2019-05-28T08:09:45.989Z,23.47
2019-05-28T08:10:45.985Z,23.54
2019-05-28T08:11:45.961Z,23.71
2019-05-28T08:12:45.956Z,23.94
2019-05-28T08:13:45.950Z,24.12
2019-05-28T08:14:45.941Z,24.24
2019-05-28T08:15:45.942Z,24.27
2019-05-28T08:16:52.800Z,24.30
2019-05-28T08:17:46.900Z,24.44
2019-05-28T08:18:45.906Z,24.51
2019-05-28T08:19:45.886Z,24.64
2019-05-28T08:20:45.898Z,24.92
2019-05-28T08:21:45.863Z,25.16
2019-05-28T08:22:46.043Z,25.49
2019-05-28T08:23:45.842Z,25.93
2019-05-28T08:24:45.827Z,25.96
2019-05-28T08:25:47.858Z,26.03
2019-05-28T08:26:45.832Z,25.93
2019-05-28T08:27:45.801Z,25.66
2019-05-28T08:28:45.794Z,25.44
2019-05-28T08:29:45.920Z,25.27
2019-05-28T08:30:45.771Z,25.02
2019-05-28T08:31:45.771Z,25.05
2019-05-28T08:32:45.751Z,24.68
2019-05-28T08:33:45.741Z,24.24
2019-05-28T08:34:45.726Z,23.97
2019-05-28T08:35:45.713Z,23.67
2019-05-28T08:37:01.835Z,23.60
2019-05-28T08:37:46.701Z,23.74
2019-05-28T08:38:45.692Z,23.79
2019-05-28T08:39:45.682Z,23.90
2019-05-28T08:40:45.681Z,23.89
2019-05-28T08:41:45.676Z,23.87
2019-05-28T08:42:45.659Z,23.89
2019-05-28T08:43:45.634Z,23.84
2019-05-28T08:44:45.647Z,23.94
2019-05-28T08:45:45.618Z,24.24
2019-05-28T08:46:45.620Z,24.27
2019-05-28T08:47:45.589Z,24.26
2019-05-28T08:48:45.583Z,24.21
2019-05-28T08:49:45.570Z,24.02
2019-05-28T08:50:45.571Z,23.99
2019-05-28T08:51:45.594Z,23.92
2019-05-28T08:52:45.568Z,23.71
2019-05-28T08:53:45.537Z,23.71
2019-05-28T08:54:45.523Z,23.72
2019-05-28T08:55:45.518Z,23.89
2019-05-28T08:56:45.501Z,23.87
2019-05-28T08:57:45.509Z,23.86
2019-05-28T08:58:45.481Z,23.77
2019-05-28T08:59:45.517Z,23.77
2019-05-28T09:00:45.461Z,23.79
2019-05-28T09:01:45.445Z,23.82
2019-05-28T09:02:45.470Z,23.92
2019-05-28T09:03:45.430Z,23.90
2019-05-28T09:04:45.430Z,24.11
2019-05-28T09:05:45.413Z,24.24
2019-05-28T09:06:45.408Z,24.24
2019-05-28T09:07:45.392Z,24.12
2019-05-28T09:08:45.394Z,24.14
2019-05-28T09:09:45.368Z,23.97
2019-05-28T09:10:45.358Z,23.86
2019-05-28T09:11:45.347Z,23.77
2019-05-28T09:12:45.341Z,23.84
2019-05-28T09:13:45.343Z,23.81
2019-05-28T09:14:55.570Z,23.69
2019-05-28T09:15:46.302Z,23.59
2019-05-28T09:16:45.300Z,23.35
2019-05-28T09:17:45.288Z,23.06
2019-05-28T09:18:45.294Z,22.60
2019-05-28T09:19:45.264Z,22.49
2019-05-28T09:20:45.319Z,22.36
2019-05-28T09:21:45.240Z,22.27
2019-05-28T09:22:45.238Z,22.30
2019-05-28T09:23:45.224Z,22.24
2019-05-28T09:24:45.235Z,22.30
2019-05-28T09:25:45.202Z,22.19
2019-05-28T09:26:45.201Z,21.91
2019-05-28T09:27:45.181Z,22.04
2019-05-28T09:28:45.177Z,22.12
2019-05-28T09:29:45.171Z,22.17
2019-05-28T09:30:45.161Z,22.29
2019-05-28T09:31:45.155Z,22.29
2019-05-28T09:32:45.137Z,22.19
2019-05-28T09:33:45.118Z,22.30
2019-05-28T09:34:45.124Z,22.27
2019-05-28T09:36:03.785Z,22.24
2019-05-28T09:36:46.093Z,22.14
2019-05-28T09:37:45.079Z,22.21
2019-05-28T09:38:45.069Z,22.11
2019-05-28T09:39:45.085Z,22.08
2019-05-28T09:40:50.732Z,21.86
2019-05-28T09:41:46.029Z,21.89
2019-05-28T09:42:45.026Z,21.85
2019-05-28T09:43:45.018Z,22.01
2019-05-28T09:44:45.014Z,22.20
2019-05-28T09:45:45.035Z,22.17
2019-05-28T09:46:44.986Z,22.15
2019-05-28T09:47:44.995Z,22.23
2019-05-28T09:48:44.968Z,22.21
2019-05-28T09:49:44.957Z,22.15
2019-05-28T09:50:44.950Z,22.15
2019-05-28T09:51:44.925Z,22.26
2019-05-28T09:52:54.487Z,22.23
2019-05-28T09:53:45.904Z,22.27
2019-05-28T09:54:44.903Z,22.29
2019-05-28T09:55:44.916Z,22.44
2019-05-28T09:56:44.913Z,22.33
2019-05-28T09:57:47.954Z,22.24
2019-05-28T09:58:44.865Z,21.94
2019-05-28T09:59:44.844Z,21.86
2019-05-28T10:00:57.625Z,21.82
2019-05-28T10:01:45.836Z,21.86
2019-05-28T10:02:44.820Z,21.83
2019-05-28T10:03:44.810Z,21.90
2019-05-28T10:04:49.707Z,21.98
2019-05-28T10:05:58.561Z,22.05
2019-05-28T10:06:45.776Z,22.06
2019-05-28T10:07:44.769Z,22.15
2019-05-28T10:08:44.802Z,22.35
2019-05-28T10:09:44.743Z,22.49
2019-05-28T10:10:44.728Z,22.60
2019-05-28T10:11:44.737Z,22.56
2019-05-28T10:12:44.722Z,22.61
2019-05-28T10:13:44.697Z,23.04
2019-05-28T10:14:44.690Z,23.45
2019-05-28T10:15:44.708Z,23.49
2019-05-28T10:16:44.688Z,23.64
2019-05-28T10:17:44.660Z,23.72
2019-05-28T10:18:44.653Z,24.02
2019-05-28T10:19:44.633Z,24.27
2019-05-28T10:20:44.643Z,24.79
2019-05-28T10:21:44.638Z,24.89
2019-05-28T10:22:44.625Z,24.87
2019-05-28T10:23:44.591Z,24.86
2019-05-28T10:24:44.589Z,24.51
2019-05-28T10:25:44.567Z,24.30
2019-05-28T10:26:44.577Z,24.52
2019-05-28T10:27:59.284Z,24.59
2019-05-28T10:28:45.547Z,24.75
2019-05-28T10:29:44.534Z,24.63
2019-05-28T10:30:44.527Z,24.55
2019-05-28T10:31:44.541Z,24.52
2019-05-28T10:32:44.498Z,24.68
2019-05-28T10:33:44.486Z,24.86
2019-05-28T10:35:02.496Z,24.90
2019-05-28T10:35:45.491Z,24.89
2019-05-28T10:36:44.473Z,25.07
2019-05-28T10:37:44.459Z,25.36
2019-05-28T10:38:44.450Z,25.82
2019-05-28T10:39:44.432Z,25.86
2019-05-28T10:40:44.424Z,26.24
2019-05-28T10:41:44.420Z,26.09
2019-05-28T10:42:44.410Z,25.90
2019-05-28T10:43:44.385Z,25.76
2019-05-28T10:44:45.359Z,25.89
2019-05-28T10:45:44.380Z,26.46
2019-05-28T10:46:44.363Z,26.97
2019-05-28T10:47:44.374Z,27.58
2019-05-28T10:48:44.339Z,28.09
2019-05-28T10:49:44.335Z,28.48
2019-05-28T10:50:44.313Z,28.46
2019-05-28T10:51:44.309Z,28.25
2019-05-28T10:52:44.342Z,27.98
2019-05-28T10:53:44.292Z,27.90
2019-05-28T10:54:44.294Z,27.88
2019-05-28T10:55:44.262Z,27.53
2019-05-28T10:56:44.254Z,27.13
2019-05-28T10:57:44.269Z,26.93
2019-05-28T10:58:44.242Z,27.09
2019-05-28T10:59:44.244Z,26.98
2019-05-28T11:00:44.225Z,26.68
2019-05-28T11:01:44.213Z,26.88
2019-05-28T11:02:44.224Z,27.24
2019-05-28T11:03:47.071Z,27.52
2019-05-28T11:04:44.194Z,27.93
2019-05-28T11:05:44.170Z,28.25
2019-05-28T11:06:51.845Z,28.57
2019-05-28T11:07:45.151Z,28.51
2019-05-28T11:08:44.154Z,28.50
2019-05-28T11:09:44.132Z,28.65
2019-05-28T11:10:44.137Z,28.62
2019-05-28T11:11:44.114Z,28.69
2019-05-28T11:12:44.103Z,28.58
2019-05-28T11:13:53.177Z,28.35
2019-05-28T11:14:45.077Z,27.84
2019-05-28T11:15:44.104Z,27.52
2019-05-28T11:16:44.064Z,26.93
2019-05-28T11:17:44.051Z,26.54
2019-05-28T11:18:44.065Z,26.38
2019-05-28T11:19:44.032Z,26.06
2019-05-28T11:20:44.029Z,25.75
2019-05-28T11:21:44.020Z,25.82
2019-05-28T11:22:43.998Z,25.93
2019-05-28T11:23:44.003Z,25.81
2019-05-28T11:24:43.983Z,25.78
2019-05-28T11:25:43.973Z,25.67
2019-05-28T11:26:43.982Z,25.39
2019-05-28T11:27:43.948Z,25.09
2019-05-28T11:28:43.971Z,24.93
2019-05-28T11:29:43.947Z,24.59
2019-05-28T11:30:43.925Z,24.48
2019-05-28T11:31:43.916Z,25.04
2019-05-28T11:32:43.915Z,25.49
2019-05-28T11:33:43.904Z,25.78
2019-05-28T11:34:43.895Z,25.93
2019-05-28T11:35:43.897Z,25.96
2019-05-28T11:36:43.857Z,26.28
2019-05-28T11:37:43.845Z,26.46
2019-05-28T11:38:43.843Z,26.64
2019-05-28T11:39:43.842Z,26.54
2019-05-28T11:40:43.819Z,26.29
2019-05-28T11:41:43.807Z,25.91
2019-05-28T11:42:43.801Z,25.41
2019-05-28T11:43:43.791Z,25.08
2019-05-28T11:44:43.827Z,24.70
2019-05-28T11:45:43.778Z,24.42
2019-05-28T11:46:43.758Z,24.42
2019-05-28T11:47:43.753Z,24.12
2019-05-28T11:48:43.739Z,24.14
2019-05-28T11:49:43.740Z,24.14
2019-05-28T11:50:43.752Z,24.12
2019-05-28T11:51:43.722Z,24.15
2019-05-28T11:52:43.702Z,24.14
2019-05-28T11:53:43.693Z,24.16
2019-05-28T11:54:43.686Z,24.14
2019-05-28T11:55:43.665Z,24.12
2019-05-28T11:56:43.664Z,23.99
2019-05-28T11:57:43.653Z,23.82
2019-05-28T11:58:43.640Z,23.67
2019-05-28T11:59:43.644Z,23.64
2019-05-28T12:00:43.623Z,23.90
2019-05-28T12:01:43.607Z,24.23
2019-05-28T12:02:43.601Z,24.14
2019-05-28T12:03:43.592Z,24.09
2019-05-28T12:04:43.596Z,24.14
2019-05-28T12:05:43.570Z,24.16
2019-05-28T12:06:43.555Z,24.00
2019-05-28T12:07:43.556Z,24.02
2019-05-28T12:08:43.530Z,23.96
2019-05-28T12:09:43.532Z,24.14
2019-05-28T12:10:43.520Z,24.18
2019-05-28T12:11:43.504Z,24.29
2019-05-28T12:12:43.494Z,24.33
2019-05-28T12:13:43.475Z,24.30
2019-05-28T12:14:43.492Z,23.97
2019-05-28T12:15:43.467Z,23.89
2019-05-28T12:16:43.472Z,23.94
2019-05-28T12:17:45.550Z,24.05
2019-05-28T12:18:43.426Z,24.15
2019-05-28T12:19:43.425Z,23.90
2019-05-28T12:20:43.410Z,23.50
2019-05-28T12:21:43.396Z,23.60
2019-05-28T12:22:43.397Z,23.72
2019-05-28T12:23:43.383Z,23.75
2019-05-28T12:24:43.383Z,23.92
2019-05-28T12:25:43.363Z,23.99
2019-05-28T12:26:43.351Z,24.15
2019-05-28T12:27:43.342Z,24.21
2019-05-28T12:28:43.349Z,24.00
2019-05-28T12:29:51.839Z,23.93
2019-05-28T12:30:44.299Z,24.15
2019-05-28T12:31:43.298Z,24.09
2019-05-28T12:32:43.286Z,24.24
2019-05-28T12:33:43.294Z,24.16
2019-05-28T12:34:43.289Z,24.08
2019-05-28T12:35:43.322Z,24.00
2019-05-28T12:36:43.248Z,23.99
2019-05-28T12:37:49.286Z,24.12
2019-05-28T12:38:44.219Z,24.29
2019-05-28T12:39:43.234Z,24.21
2019-05-28T12:40:47.789Z,24.29
2019-05-28T12:42:00.807Z,24.55
2019-05-28T12:42:44.182Z,24.67
2019-05-28T12:43:43.175Z,24.39
2019-05-28T12:44:43.165Z,24.19
2019-05-28T12:45:43.158Z,24.29
2019-05-28T12:46:43.144Z,24.74
2019-05-28T12:47:43.157Z,25.17
2019-05-28T12:48:43.125Z,25.69
2019-05-28T12:49:43.166Z,26.24
2019-05-28T12:50:43.095Z,26.68
2019-05-28T12:51:43.084Z,27.12